Time;durP1;ratioP1;P1;durP2;ratioP2;P2;SDS_P1;SDS_P2;PMS_P1;PMS_P2;Temp;Humidity;BMP_temperature;BMP_pressure;BME280_temperature;BME280_humidity;BME280_pressure;Samples;Min_cycle;Max_cycle;Signal;HPM_P1;HPM_P2
2023/12/28 00:01:45;;;;;;;;;4.00;3.50;;;;;9.42;95.54;100615.06;4958340;28;10055;-70
2023/12/28 00:04:12;;;;;;;;;7.00;5.50;;;;;9.46;95.37;100618.22;4954900;28;10307;-70
2023/12/28 00:06:39;;;;;;;;;4.75;4.50;;;;;9.44;95.50;100626.47;4961925;28;10216;-71
2023/12/28 00:09:07;;;;;;;;;8.50;5.75;;;;;9.47;95.79;100631.44;4963306;28;10078;-71
2023/12/28 00:11:38;;;;;;;;;7.25;4.25;;;;;9.47;96.16;100638.66;4952482;28;10100;-70
2023/12/28 00:14:04;;;;;;;;;5.25;5.00;;;;;9.49;96.11;100640.16;4970885;28;10133;-69
2023/12/28 00:16:36;;;;;;;;;5.00;5.00;;;;;9.56;95.71;100640.19;4969189;28;10161;-70
2023/12/28 00:19:04;;;;;;;;;3.50;2.00;;;;;9.55;95.25;100625.09;4937690;28;10058;-70
2023/12/28 00:21:31;;;;;;;;;4.00;3.00;;;;;9.52;95.73;100637.09;4966997;28;10056;-70
2023/12/28 00:23:58;;;;;;;;;2.25;2.00;;;;;9.55;96.20;100631.31;4957925;28;10116;-67
2023/12/28 00:26:24;;;;;;;;;2.75;2.75;;;;;9.50;96.62;100631.06;4956871;28;9959;-69
2023/12/28 00:29:01;;;;;;;;;4.50;3.00;;;;;9.44;97.18;100636.38;4946631;28;10155;-70
2023/12/28 00:31:27;;;;;;;;;2.00;2.00;;;;;9.52;96.72;100629.03;4936729;28;10337;-71
2023/12/28 00:33:54;;;;;;;;;5.50;2.25;;;;;9.52;96.61;100631.72;4953641;28;10223;-70
2023/12/28 00:36:21;;;;;;;;;6.00;3.50;;;;;9.47;96.95;100634.13;4941960;28;10306;-71
2023/12/28 00:38:47;;;;;;;;;3.25;2.00;;;;;9.57;96.88;100631.97;4965052;28;10138;-72
2023/12/28 00:41:14;;;;;;;;;1.50;1.50;;;;;9.55;96.36;100634.00;4960960;28;10157;-72
2023/12/28 00:43:40;;;;;;;;;5.25;4.00;;;;;9.66;95.54;100640.72;4954858;28;10059;-72
2023/12/28 00:46:07;;;;;;;;;2.00;2.00;;;;;9.63;95.83;100627.66;4939205;28;10073;-70
2023/12/28 00:48:33;;;;;;;;;5.00;3.00;;;;;9.60;96.28;100641.47;4946932;28;10759;-70
2023/12/28 00:51:00;;;;;;;;;2.75;2.75;;;;;9.64;95.78;100648.13;4963543;28;10078;-70
2023/12/28 00:53:27;;;;;;;;;4.00;4.00;;;;;9.65;95.60;100641.75;4950293;28;10166;-69
2023/12/28 00:55:54;;;;;;;;;4.00;4.00;;;;;9.61;95.91;100645.84;4954234;28;10040;-70
2023/12/28 00:58:21;;;;;;;;;5.00;4.00;;;;;9.59;95.99;100639.81;4946568;28;10155;-69
2023/12/28 01:00:48;;;;;;;;;6.75;5.00;;;;;9.59;95.95;100653.25;4963865;28;10206;-69
2023/12/28 01:03:14;;;;;;;;;3.75;3.75;;;;;9.66;95.53;100651.47;4945320;28;10102;-71
2023/12/28 01:05:41;;;;;;;;;5.00;5.00;;;;;9.62;95.25;100648.34;4969023;28;10201;-68
2023/12/28 01:08:08;;;;;;;;;7.00;6.00;;;;;9.59;95.45;100646.03;4940710;28;10039;-70
2023/12/28 01:10:35;;;;;;;;;4.00;2.25;;;;;9.67;94.89;100645.06;4944782;28;10099;-68
2023/12/28 01:13:01;;;;;;;;;6.25;3.00;;;;;9.66;95.41;100656.84;4935427;28;10202;-68
2023/12/28 01:15:28;;;;;;;;;7.50;5.00;;;;;9.71;94.79;100656.25;4942847;28;9962;-70
2023/12/28 01:17:55;;;;;;;;;2.00;2.00;;;;;9.63;94.77;100641.09;4953171;28;10076;-70
2023/12/28 01:20:23;;;;;;;;;5.25;4.00;;;;;9.55;95.50;100646.59;4941649;28;10091;-69
2023/12/28 01:22:50;;;;;;;;;4.50;3.00;;;;;9.61;95.32;100656.59;4938110;28;10028;-70
2023/12/28 01:25:16;;;;;;;;;2.00;2.00;;;;;9.61;95.04;100656.59;4958811;28;10129;-69
2023/12/28 01:27:43;;;;;;;;;3.50;3.50;;;;;9.59;95.29;100658.63;4936538;28;10039;-70
2023/12/28 01:30:10;;;;;;;;;4.25;2.00;;;;;9.63;95.63;100667.97;4940773;28;10019;-70
2023/12/28 01:32:36;;;;;;;;;4.25;3.00;;;;;9.60;95.27;100654.91;4967075;28;10044;-70
2023/12/28 01:35:03;;;;;;;;;6.75;6.75;;;;;9.54;95.97;100658.38;4946311;28;10658;-70
2023/12/28 01:37:33;;;;;;;;;3.00;2.50;;;;;9.59;95.32;100664.00;4952790;28;10061;-70
2023/12/28 01:40:00;;;;;;;;;3.00;3.00;;;;;9.66;95.18;100664.91;4940594;28;10049;-70
2023/12/28 01:42:29;;;;;;;;;3.25;3.00;;;;;9.66;95.10;100651.47;4957218;28;10063;-69
2023/12/28 01:44:57;;;;;;;;;5.00;2.75;;;;;9.62;94.87;100656.41;4944114;28;11231;-70
2023/12/28 01:47:25;;;;;;;;;4.75;2.75;;;;;9.61;94.98;100667.34;4939474;28;10208;-70
2023/12/28 01:49:53;;;;;;;;;2.50;2.50;;;;;9.64;94.56;100658.88;4952405;28;10128;-70
2023/12/28 01:52:20;;;;;;;;;3.00;3.00;;;;;9.70;94.29;100642.00;4940514;28;10086;-70
2023/12/28 01:54:47;;;;;;;;;2.25;2.25;;;;;9.68;94.30;100659.31;4955161;28;9958;-69
2023/12/28 01:57:15;;;;;;;;;2.75;2.75;;;;;9.65;94.55;100644.44;4942288;28;10197;-71
2023/12/28 01:59:42;;;;;;;;;4.00;3.00;;;;;9.69;94.55;100664.53;4935976;28;10044;-71
2023/12/28 02:02:09;;;;;;;;;2.00;2.00;;;;;9.72;94.25;100650.69;4935671;28;10921;-70
2023/12/28 02:04:36;;;;;;;;;2.00;2.00;;;;;9.66;94.11;100665.72;4936269;28;10019;-70
2023/12/28 02:07:02;;;;;;;;;4.25;3.50;;;;;9.63;94.25;100662.59;4936317;28;10767;-71
2023/12/28 02:09:29;;;;;;;;;2.75;2.75;;;;;9.66;94.58;100667.59;4946124;29;9961;-70
2023/12/28 02:11:56;;;;;;;;;4.00;3.50;;;;;9.64;94.93;100658.88;4946954;28;10035;-71
2023/12/28 02:14:22;;;;;;;;;3.50;3.00;;;;;9.62;94.62;100653.72;4951930;28;10058;-71
2023/12/28 02:17:05;;;;;;;;;5.00;3.00;;;;;9.62;94.50;100656.41;4953296;28;10130;-71
2023/12/28 02:19:49;;;;;;;;;3.25;3.25;;;;;9.61;94.37;100646.69;4936043;28;10036;-70
2023/12/28 02:22:16;;;;;;;;;2.75;2.75;;;;;9.58;94.76;100655.13;4952903;28;10323;-70
2023/12/28 02:25:08;;;;;;;;;4.00;3.50;;;;;9.64;93.93;100650.81;4935743;28;9872;-71
2023/12/28 02:27:48;;;;;;;;;5.25;5.00;;;;;9.66;93.99;100640.72;4949710;28;9801;-70
2023/12/28 02:30:18;;;;;;;;;8.00;6.25;;;;;9.69;93.61;100645.72;4953410;28;9866;-70
2023/12/28 02:33:09;;;;;;;;;3.00;2.00;;;;;9.63;94.13;100646.47;4952067;28;9859;-70
2023/12/28 02:35:42;;;;;;;;;2.25;2.25;;;;;9.63;94.42;100643.78;4951471;28;9952;-69
2023/12/28 02:38:11;;;;;;;;;3.75;3.00;;;;;9.65;94.01;100639.06;4952433;28;9958;-69
2023/12/28 02:40:40;;;;;;;;;7.50;3.00;;;;;9.57;94.72;100640.03;4952969;28;9870;-70
2023/12/28 02:43:07;;;;;;;;;3.00;3.00;;;;;9.64;94.13;100635.56;4950988;28;10058;-68
2023/12/28 02:45:36;;;;;;;;;6.25;4.50;;;;;9.53;94.51;100641.44;4934564;28;10093;-70
2023/12/28 02:48:04;;;;;;;;;4.00;3.00;;;;;9.55;94.19;100644.75;4935201;28;10133;-71
2023/12/28 02:50:32;;;;;;;;;3.00;3.00;;;;;9.51;94.45;100654.22;4935025;28;10060;-70
2023/12/28 02:53:00;;;;;;;;;4.50;3.00;;;;;9.51;94.42;100653.38;4935347;28;9943;-70
2023/12/28 02:55:27;;;;;;;;;5.50;4.25;;;;;9.49;94.30;100653.59;4919771;28;9794;-69
2023/12/28 02:57:55;;;;;;;;;3.00;3.00;;;;;9.53;94.12;100638.75;4934854;28;10002;-70
2023/12/28 03:00:22;;;;;;;;;2.50;2.00;;;;;9.61;93.87;100641.31;4934459;28;9952;-70
2023/12/28 03:02:49;;;;;;;;;3.00;3.00;;;;;9.59;93.39;100653.25;4950655;28;10032;-69
2023/12/28 03:05:15;;;;;;;;;3.00;3.00;;;;;9.61;93.49;100656.59;4952495;28;9991;-70
2023/12/28 03:07:42;;;;;;;;;3.00;3.00;;;;;9.57;93.39;100641.88;4934432;28;10089;-71
2023/12/28 03:10:11;;;;;;;;;2.00;2.00;;;;;9.58;93.69;100644.38;4935152;28;10247;-70
2023/12/28 03:12:40;;;;;;;;;2.75;2.75;;;;;9.51;93.38;100643.47;4950969;28;9763;-70
2023/12/28 03:15:07;;;;;;;;;5.00;2.75;;;;;9.56;93.46;100635.69;4952184;28;9791;-69
2023/12/28 03:17:34;;;;;;;;;3.00;2.00;;;;;9.56;93.31;100651.81;4951955;28;9967;-70
2023/12/28 03:20:00;;;;;;;;;3.00;2.25;;;;;9.54;93.62;100655.69;4935350;28;10073;-70
2023/12/28 03:22:27;;;;;;;;;2.50;2.50;;;;;9.53;93.46;100643.28;4952417;28;10745;-70
2023/12/28 03:24:55;;;;;;;;;1.50;1.00;;;;;9.52;93.62;100631.72;4934432;28;9934;-69
2023/12/28 03:27:21;;;;;;;;;4.25;3.00;;;;;9.62;93.21;100621.47;4934086;28;9799;-70
2023/12/28 03:29:48;;;;;;;;;2.00;2.00;;;;;9.55;92.99;100606.31;4935029;28;9876;-69
2023/12/28 03:32:14;;;;;;;;;2.50;2.00;;;;;9.57;92.71;100626.59;4952306;28;9898;-69
2023/12/28 03:34:41;;;;;;;;;2.25;2.00;;;;;9.56;92.92;100618.69;4951547;28;9773;-69
2023/12/28 03:37:09;;;;;;;;;3.00;2.25;;;;;9.57;92.57;100615.84;4951127;28;10771;-68
2023/12/28 03:39:35;;;;;;;;;2.75;1.25;;;;;9.53;92.70;100625.31;4950449;28;9768;-69
2023/12/28 03:42:02;;;;;;;;;5.25;5.00;;;;;9.50;92.71;100609.56;4935002;29;10038;-69
2023/12/28 03:44:29;;;;;;;;;3.25;2.00;;;;;9.46;92.59;100608.28;4934705;29;9903;-69
2023/12/28 03:46:56;;;;;;;;;5.00;2.00;;;;;9.49;92.53;100617.84;4952016;28;9891;-69
2023/12/28 03:49:22;;;;;;;;;3.50;2.75;;;;;9.49;92.56;100612.47;4951696;29;9860;-68
2023/12/28 03:51:50;;;;;;;;;6.00;2.00;;;;;9.54;92.24;100615.41;4934146;29;9874;-69
2023/12/28 03:54:17;;;;;;;;;1.75;1.00;;;;;9.64;91.66;100610.50;4949660;29;10134;-69
2023/12/28 03:56:46;;;;;;;;;1.50;1.50;;;;;9.70;91.27;100615.13;4934935;29;9951;-69
2023/12/28 03:59:15;;;;;;;;;1.50;1.50;;;;;9.65;91.53;100612.19;4951979;29;9908;-69
2023/12/28 04:01:42;;;;;;;;;3.00;2.00;;;;;9.60;91.52;100614.59;4934831;29;10010;-69
2023/12/28 04:04:08;;;;;;;;;1.00;1.00;;;;;9.60;91.79;100625.34;4950771;29;10613;-69
2023/12/28 04:06:36;;;;;;;;;2.00;2.00;;;;;9.59;91.53;100615.63;4950667;28;9797;-70
2023/12/28 04:09:03;;;;;;;;;1.00;1.00;;;;;9.64;91.00;100618.56;4934700;29;9787;-69
2023/12/28 04:11:30;;;;;;;;;2.25;2.25;;;;;9.66;90.90;100628.09;4934620;29;9786;-69
2023/12/28 04:13:56;;;;;;;;;1.75;1.75;;;;;9.58;91.23;100613.97;4934444;29;9781;-69
2023/12/28 04:16:23;;;;;;;;;2.75;1.50;;;;;9.51;91.54;100615.78;4934617;29;10017;-70
2023/12/28 04:18:49;;;;;;;;;3.00;1.50;;;;;9.56;91.18;100610.63;4933871;29;9936;-70
2023/12/28 04:21:16;;;;;;;;;2.00;1.50;;;;;9.61;91.01;100617.13;4932666;28;9962;-70
2023/12/28 04:23:42;;;;;;;;;1.50;1.00;;;;;9.61;91.00;100624.34;4933361;29;9891;-70
2023/12/28 04:26:09;;;;;;;;;3.50;2.00;;;;;9.67;90.44;100620.88;4951002;28;9668;-69
2023/12/28 04:28:35;;;;;;;;;3.00;3.00;;;;;9.68;90.18;100613.63;4935029;29;9856;-69
2023/12/28 04:31:06;;;;;;;;;3.00;2.00;;;;;9.69;90.36;100605.41;4935015;28;9981;-70
2023/12/28 04:33:33;;;;;;;;;3.25;2.00;;;;;9.71;90.16;100616.78;4938231;28;9803;-68
2023/12/28 04:36:05;;;;;;;;;2.50;2.00;;;;;9.68;90.33;100617.16;4929020;28;9953;-70
2023/12/28 04:38:33;;;;;;;;;3.00;2.75;;;;;9.69;90.03;100626.06;4945761;28;9895;-70
2023/12/28 04:41:00;;;;;;;;;2.25;1.25;;;;;9.67;89.81;100612.81;4937654;28;9909;-70
2023/12/28 04:43:27;;;;;;;;;2.75;2.00;;;;;9.71;89.92;100619.47;4935925;28;9788;-70
2023/12/28 04:45:54;;;;;;;;;2.00;1.00;;;;;9.63;90.08;100625.81;4937466;28;9869;-69
2023/12/28 04:48:23;;;;;;;;;1.00;1.00;;;;;9.62;89.84;100617.94;4955079;28;9904;-69
2023/12/28 04:50:50;;;;;;;;;2.00;2.00;;;;;9.71;89.54;100626.69;4953370;28;10615;-69
2023/12/28 04:53:16;;;;;;;;;0.50;0.50;;;;;9.65;89.80;100628.31;4937017;28;9880;-71
2023/12/28 04:55:43;;;;;;;;;2.00;1.75;;;;;9.65;89.25;100633.69;4937180;28;9872;-71
2023/12/28 04:58:13;;;;;;;;;1.75;1.00;;;;;9.72;88.80;100631.88;4937174;28;9782;-70
2023/12/28 05:00:40;;;;;;;;;6.75;2.25;;;;;9.74;88.33;100632.53;4961544;28;9765;-70
2023/12/28 05:03:06;;;;;;;;;4.50;1.50;;;;;9.82;87.81;100627.00;4936689;28;9797;-70
2023/12/28 05:05:33;;;;;;;;;5.50;3.00;;;;;9.81;87.65;100627.22;4929435;28;9868;-70
2023/12/28 05:08:00;;;;;;;;;1.00;1.00;;;;;9.83;87.65;100636.72;4953647;28;9957;-71
2023/12/28 05:10:27;;;;;;;;;1.00;1.00;;;;;9.84;87.85;100624.09;4936705;28;9782;-69
2023/12/28 05:12:54;;;;;;;;;3.00;1.75;;;;;9.86;87.40;100635.50;4954471;28;9869;-71
2023/12/28 05:15:27;;;;;;;;;1.00;1.00;;;;;9.86;87.18;100628.28;4954340;28;9985;-70
2023/12/28 05:17:54;;;;;;;;;2.00;1.75;;;;;9.81;88.17;100603.84;4937434;28;9807;-71
2023/12/28 05:20:21;;;;;;;;;3.25;1.50;;;;;9.83;87.09;100623.28;4951033;28;10069;-70
2023/12/28 05:22:48;;;;;;;;;3.25;3.00;;;;;9.76;87.27;100624.25;4954337;28;9942;-70
2023/12/28 05:25:14;;;;;;;;;2.00;2.00;;;;;9.82;87.23;100626.19;4954163;28;9947;-69
2023/12/28 05:27:42;;;;;;;;;1.00;1.00;;;;;9.77;87.43;100602.56;4953931;28;9876;-70
2023/12/28 05:30:10;;;;;;;;;2.75;1.00;;;;;9.78;87.86;100631.09;4954081;28;9630;-70
2023/12/28 05:32:37;;;;;;;;;2.50;2.00;;;;;9.78;87.36;100630.28;4954451;28;9716;-68
2023/12/28 05:35:04;;;;;;;;;8.25;4.50;;;;;9.75;87.00;100604.59;4952578;28;9698;-71
2023/12/28 05:37:30;;;;;;;;;1.00;1.00;;;;;9.79;86.61;100619.31;4954411;28;9943;-70
2023/12/28 05:39:57;;;;;;;;;2.00;2.00;;;;;9.94;86.57;100619.25;4935428;28;9714;-71
2023/12/28 05:42:24;;;;;;;;;1.25;1.25;;;;;9.94;86.38;100627.31;4953730;28;9881;-70
2023/12/28 05:44:50;;;;;;;;;1.00;1.00;;;;;9.85;86.55;100633.88;4953859;28;10416;-71
2023/12/28 05:47:17;;;;;;;;;1.50;1.50;;;;;9.85;86.48;100629.31;4952441;28;9813;-70
2023/12/28 05:49:43;;;;;;;;;2.00;2.00;;;;;9.87;85.87;100618.34;4957368;28;9688;-70
2023/12/28 05:52:10;;;;;;;;;4.50;1.00;;;;;9.90;85.72;100618.78;4952533;28;10486;-70
2023/12/28 05:54:37;;;;;;;;;2.00;2.00;;;;;9.90;86.24;100616.09;4952444;28;9770;-70
2023/12/28 05:57:03;;;;;;;;;2.25;1.00;;;;;9.89;86.07;100630.59;4946035;28;9810;-68
2023/12/28 05:59:30;;;;;;;;;8.00;2.00;;;;;9.90;85.77;100636.78;4953832;28;9752;-70
2023/12/28 06:01:57;;;;;;;;;3.00;2.00;;;;;9.89;86.07;100629.75;4953528;28;9797;-70
2023/12/28 06:04:23;;;;;;;;;2.00;1.25;;;;;9.83;86.38;100625.16;4917329;29;10745;-71
2023/12/28 06:06:50;;;;;;;;;1.00;1.00;;;;;9.87;85.67;100639.84;4933046;29;9720;-70
2023/12/28 06:09:17;;;;;;;;;5.00;2.00;;;;;9.93;85.74;100639.09;4945836;28;9730;-67
2023/12/28 06:11:43;;;;;;;;;3.00;1.75;;;;;9.86;85.82;100633.66;4960296;28;9822;-70
2023/12/28 06:14:09;;;;;;;;;3.00;1.00;;;;;9.87;85.68;100632.63;4960528;28;10631;-71
2023/12/28 06:16:36;;;;;;;;;3.25;2.75;;;;;9.87;85.71;100658.69;4960210;28;9937;-69
2023/12/28 06:19:03;;;;;;;;;2.00;2.00;;;;;9.90;85.71;100658.28;4963400;28;9942;-71
2023/12/28 06:21:30;;;;;;;;;4.00;2.25;;;;;9.98;85.24;100654.63;4960860;28;9706;-71
2023/12/28 06:23:58;;;;;;;;;4.50;3.00;;;;;10.00;85.78;100663.31;4952698;28;9875;-69
2023/12/28 06:26:25;;;;;;;;;6.00;2.75;;;;;9.98;85.22;100668.09;4935630;28;9795;-70
2023/12/28 06:28:51;;;;;;;;;5.25;2.00;;;;;10.08;84.69;100668.56;4936400;28;9952;-71
2023/12/28 06:31:18;;;;;;;;;2.25;2.25;;;;;10.11;84.80;100681.63;4935943;28;9716;-71
2023/12/28 06:33:44;;;;;;;;;3.25;2.50;;;;;10.03;84.56;100677.22;4953164;28;9708;-72
2023/12/28 06:36:12;;;;;;;;;2.00;1.00;;;;;10.10;84.39;100677.28;4948270;28;9712;-71
2023/12/28 06:38:38;;;;;;;;;2.50;2.00;;;;;10.07;84.72;100685.72;4950474;28;9860;-71
2023/12/28 06:41:12;;;;;;;;;3.00;3.00;;;;;10.12;85.12;100673.34;4953093;28;9855;-70
2023/12/28 06:43:39;;;;;;;;;2.25;2.25;;;;;10.05;84.69;100680.56;4952979;28;9749;-71
2023/12/28 06:46:05;;;;;;;;;2.50;1.00;;;;;9.99;85.23;100680.50;4935637;28;9732;-71
2023/12/28 06:48:32;;;;;;;;;5.00;3.75;;;;;10.01;85.18;100681.97;4952882;28;9797;-71
2023/12/28 06:50:59;;;;;;;;;2.00;1.25;;;;;10.02;85.08;100680.13;4952768;28;10495;-71
2023/12/28 06:53:25;;;;;;;;;2.00;2.00;;;;;10.05;84.55;100687.81;4950093;28;9626;-70
2023/12/28 06:55:52;;;;;;;;;3.00;2.00;;;;;10.03;85.31;100698.72;4950613;28;9711;-71
2023/12/28 06:58:18;;;;;;;;;11.75;4.00;;;;;10.00;85.09;100695.59;4952585;28;9789;-71
2023/12/28 07:00:45;;;;;;;;;5.75;3.00;;;;;10.08;84.87;100704.34;4935753;28;9918;-71
2023/12/28 07:03:12;;;;;;;;;5.00;4.25;;;;;10.05;85.11;100704.75;4935557;28;9862;-70
2023/12/28 07:05:38;;;;;;;;;3.50;2.50;;;;;10.06;85.02;100692.16;4951569;28;9880;-71
2023/12/28 07:08:05;;;;;;;;;2.75;2.50;;;;;10.06;85.05;100705.59;4942107;28;10610;-71
2023/12/28 07:10:32;;;;;;;;;2.00;1.50;;;;;10.06;84.77;100716.34;4948831;28;9780;-70
2023/12/28 07:12:58;;;;;;;;;2.25;2.25;;;;;10.08;84.65;100722.34;4946247;28;9772;-70
2023/12/28 07:15:25;;;;;;;;;5.50;2.75;;;;;10.03;84.80;100724.78;4951943;28;11815;-71
2023/12/28 07:17:51;;;;;;;;;1.75;1.75;;;;;9.99;84.66;100715.44;4952265;28;9798;-71
2023/12/28 07:20:18;;;;;;;;;3.00;3.00;;;;;10.01;84.82;100716.94;4952576;28;10599;-70
2023/12/28 07:22:44;;;;;;;;;3.25;2.00;;;;;9.98;85.19;100714.63;4952003;28;9868;-68
2023/12/28 07:25:11;;;;;;;;;5.75;3.00;;;;;10.04;84.51;100718.38;4956060;28;9872;-70
2023/12/28 07:27:37;;;;;;;;;6.50;2.50;;;;;10.01;84.80;100730.38;4941086;28;9902;-72
2023/12/28 07:30:05;;;;;;;;;2.75;2.00;;;;;10.00;84.63;100730.56;4949572;28;9978;-69
2023/12/28 07:32:31;;;;;;;;;5.75;2.75;;;;;9.94;84.60;100723.28;4957846;28;9578;-71
2023/12/28 07:34:59;;;;;;;;;2.50;2.50;;;;;9.91;84.64;100728.00;4967744;28;10290;-71
2023/12/28 07:37:25;;;;;;;;;3.50;3.00;;;;;9.91;84.35;100736.06;4955479;28;9564;-71
2023/12/28 07:39:52;;;;;;;;;5.00;3.00;;;;;9.89;85.13;100734.63;4952645;28;9736;-71
2023/12/28 07:42:19;;;;;;;;;2.00;1.75;;;;;9.82;85.30;100745.28;4965897;28;9684;-70
2023/12/28 07:44:45;;;;;;;;;5.25;2.50;;;;;9.84;85.13;100740.56;4954028;28;9680;-71
2023/12/28 07:47:12;;;;;;;;;1.25;1.00;;;;;9.91;84.49;100752.19;4971575;28;9779;-72
2023/12/28 07:49:39;;;;;;;;;3.00;1.75;;;;;9.93;84.75;100759.25;4970479;28;9725;-69
2023/12/28 07:52:05;;;;;;;;;2.25;1.00;;;;;9.90;84.79;100758.59;4966718;28;9619;-70
2023/12/28 07:54:32;;;;;;;;;5.50;2.75;;;;;9.95;84.82;100757.19;4950753;29;9723;-71
2023/12/28 07:56:59;;;;;;;;;3.50;1.50;;;;;9.92;84.91;100750.34;4952003;28;9878;-70
2023/12/28 07:59:26;;;;;;;;;2.00;2.00;;;;;10.04;84.73;100753.34;4951712;29;9889;-70
2023/12/28 08:01:52;;;;;;;;;6.75;2.75;;;;;10.01;84.55;100756.44;4952425;29;9892;-70
2023/12/28 08:04:19;;;;;;;;;5.50;3.00;;;;;9.95;84.45;100751.81;4934882;29;9805;-68
2023/12/28 08:06:46;;;;;;;;;3.00;2.00;;;;;10.01;84.66;100757.28;4951666;28;9642;-69
2023/12/28 08:09:12;;;;;;;;;3.75;1.50;;;;;9.91;84.62;100754.88;4953645;28;9936;-70
2023/12/28 08:11:39;;;;;;;;;3.00;2.00;;;;;9.98;84.49;100756.81;4955575;28;9778;-70
2023/12/28 08:14:05;;;;;;;;;3.75;3.00;;;;;10.07;84.18;100771.78;4955328;28;9965;-66
2023/12/28 08:16:32;;;;;;;;;5.00;1.00;;;;;10.03;84.32;100759.75;4953065;28;9786;-69
2023/12/28 08:18:58;;;;;;;;;2.25;2.25;;;;;10.01;84.28;100765.34;4955641;28;9854;-71
2023/12/28 08:21:25;;;;;;;;;3.75;3.75;;;;;9.93;84.51;100765.47;4955558;28;9887;-70
2023/12/28 08:23:51;;;;;;;;;3.75;2.00;;;;;9.99;84.08;100771.94;4955341;28;9880;-68
2023/12/28 08:26:18;;;;;;;;;4.50;2.50;;;;;10.04;84.24;100764.09;4937217;28;9978;-69
2023/12/28 08:28:45;;;;;;;;;2.50;2.25;;;;;10.04;84.18;100766.78;4952225;28;9933;-70
2023/12/28 08:31:13;;;;;;;;;4.75;4.25;;;;;9.92;83.98;100774.53;4937446;28;9965;-69
2023/12/28 08:33:40;;;;;;;;;6.00;3.25;;;;;9.97;84.41;100787.44;4922523;28;9989;-67
2023/12/28 08:36:08;;;;;;;;;2.00;1.00;;;;;10.03;84.18;100768.66;4955372;28;10782;-70
2023/12/28 08:38:34;;;;;;;;;5.75;2.75;;;;;10.11;83.94;100773.91;4955737;28;9685;-68
2023/12/28 08:41:03;;;;;;;;;2.75;2.75;;;;;10.01;84.07;100783.34;4954246;28;9860;-69
2023/12/28 08:43:29;;;;;;;;;1.75;1.75;;;;;10.10;83.98;100774.94;4951375;28;9710;-69
2023/12/28 08:45:56;;;;;;;;;7.75;3.25;;;;;10.10;84.41;100783.00;4949663;28;10661;-70
2023/12/28 08:48:23;;;;;;;;;2.00;2.00;;;;;10.09;84.09;100783.22;4934873;28;9986;-70
2023/12/28 08:50:50;;;;;;;;;2.00;2.00;;;;;10.03;84.18;100786.66;4953048;28;10083;-70
2023/12/28 08:53:17;;;;;;;;;2.50;2.00;;;;;10.11;83.79;100779.28;4951373;28;9791;-70
2023/12/28 08:55:43;;;;;;;;;2.00;2.00;;;;;10.13;83.97;100792.56;4929676;28;9961;-70
2023/12/28 08:58:10;;;;;;;;;6.00;3.00;;;;;10.13;83.81;100795.25;4941186;28;9853;-70
2023/12/28 09:00:37;;;;;;;;;4.75;1.00;;;;;10.05;84.21;100793.50;4947207;28;9882;-69
2023/12/28 09:03:03;;;;;;;;;4.50;2.00;;;;;10.07;84.06;100796.00;4936093;28;10587;-70
2023/12/28 09:05:30;;;;;;;;;3.00;1.25;;;;;10.12;83.96;100796.25;4949909;28;9710;-70
2023/12/28 09:07:57;;;;;;;;;5.50;2.75;;;;;10.16;84.29;100792.16;4925846;28;9795;-70
2023/12/28 09:10:24;;;;;;;;;6.25;3.75;;;;;10.15;84.40;100795.88;4929051;28;9888;-70
2023/12/28 09:12:50;;;;;;;;;2.75;2.75;;;;;10.14;84.32;100799.59;4940716;28;9889;-71
2023/12/28 09:15:17;;;;;;;;;2.75;2.00;;;;;10.15;84.02;100806.63;4954581;28;9630;-69
2023/12/28 09:17:44;;;;;;;;;3.50;1.50;;;;;10.19;83.86;100807.09;4936323;28;9824;-69
2023/12/28 09:20:11;;;;;;;;;5.00;2.50;;;;;10.23;83.84;100802.97;4953026;28;9686;-70
2023/12/28 09:22:38;;;;;;;;;4.00;2.00;;;;;10.12;84.42;100805.16;4939053;28;10598;-70
2023/12/28 09:25:05;;;;;;;;;2.50;2.00;;;;;10.10;84.65;100812.59;4957155;28;9789;-70
2023/12/28 09:27:31;;;;;;;;;5.00;1.75;;;;;10.15;84.47;100806.63;4949306;28;9629;-68
2023/12/28 09:29:58;;;;;;;;;2.25;2.00;;;;;10.12;84.58;100815.06;4960593;28;9568;-69
2023/12/28 09:32:24;;;;;;;;;2.00;2.00;;;;;10.15;84.55;100807.47;4965516;28;9697;-70
2023/12/28 09:34:51;;;;;;;;;5.50;2.00;;;;;10.13;84.95;100811.38;4955231;28;9889;-70
2023/12/28 09:37:18;;;;;;;;;5.75;3.00;;;;;10.14;84.97;100813.03;4951441;28;9893;-69
2023/12/28 09:39:44;;;;;;;;;2.00;2.00;;;;;10.11;85.35;100794.59;4955206;28;9633;-70
2023/12/28 09:42:29;;;;;;;;;2.25;2.25;;;;;10.19;84.85;100812.47;4956046;28;9663;-70
2023/12/28 09:44:56;;;;;;;;;2.00;2.00;;;;;10.17;85.17;100815.34;4955548;28;9793;-70
2023/12/28 09:47:23;;;;;;;;;2.00;1.25;;;;;10.25;84.51;100823.31;4956068;28;9764;-70
2023/12/28 09:49:49;;;;;;;;;2.00;2.00;;;;;10.19;84.47;100836.66;4955378;28;9631;-70
2023/12/28 09:52:16;;;;;;;;;6.75;2.75;;;;;10.19;84.65;100826.75;4960062;28;9897;-63
2023/12/28 09:54:42;;;;;;;;;2.50;2.00;;;;;10.25;84.59;100834.09;4965595;28;9720;-70
2023/12/28 09:57:11;;;;;;;;;3.25;3.25;;;;;10.26;84.16;100859.13;4958717;28;9625;-72
2023/12/28 09:59:39;;;;;;;;;7.00;2.25;;;;;10.20;84.04;100830.25;4961895;28;9793;-73
2023/12/28 10:02:07;;;;;;;;;4.50;3.25;;;;;10.25;83.83;100849.38;4963040;28;9797;-70
2023/12/28 10:04:33;;;;;;;;;4.00;2.75;;;;;10.27;84.04;100842.78;4961293;28;9733;-71
2023/12/28 10:07:00;;;;;;;;;3.00;2.00;;;;;10.33;83.62;100839.34;4955665;28;9650;-71
2023/12/28 10:09:27;;;;;;;;;4.00;2.25;;;;;10.29;83.77;100847.97;4954108;28;9652;-69
2023/12/28 10:11:54;;;;;;;;;3.75;2.00;;;;;10.32;83.80;100851.09;4922038;28;9644;-70
2023/12/28 10:14:20;;;;;;;;;5.50;2.50;;;;;10.34;83.75;100856.31;4935479;28;9640;-69
2023/12/28 10:16:47;;;;;;;;;3.50;2.25;;;;;10.28;84.42;100860.59;4949665;28;9804;-70
2023/12/28 10:19:14;;;;;;;;;5.75;3.00;;;;;10.34;84.08;100861.69;4942794;28;9475;-71
2023/12/28 10:21:43;;;;;;;;;4.25;2.50;;;;;10.29;84.44;100867.66;4957758;28;9629;-68
2023/12/28 10:24:10;;;;;;;;;2.00;2.00;;;;;10.27;84.60;100855.41;4962678;28;9809;-70
2023/12/28 10:26:37;;;;;;;;;1.75;1.75;;;;;10.25;85.06;100868.19;4962697;28;9697;-68
2023/12/28 10:29:03;;;;;;;;;5.50;2.50;;;;;10.21;85.74;100864.19;4954480;28;9629;-68
2023/12/28 10:31:30;;;;;;;;;1.75;1.75;;;;;10.16;86.10;100864.78;4951169;28;9798;-68
2023/12/28 10:33:59;;;;;;;;;3.00;2.00;;;;;10.18;86.34;100864.59;4934154;28;9879;-69
2023/12/28 10:36:27;;;;;;;;;3.00;3.00;;;;;10.25;86.23;100850.22;4953278;28;9743;-69
2023/12/28 10:38:55;;;;;;;;;3.00;3.00;;;;;10.32;86.09;100851.09;4947528;28;9719;-69
2023/12/28 10:41:22;;;;;;;;;4.00;3.00;;;;;10.30;86.47;100863.94;4919069;28;11171;-68
2023/12/28 10:44:02;;;;;;;;;2.00;2.00;;;;;10.21;86.57;100858.81;4945305;28;9743;-69
2023/12/28 10:46:40;;;;;;;;;6.75;4.75;;;;;10.25;86.46;100876.28;4957769;28;9781;-69
2023/12/28 10:49:14;;;;;;;;;3.75;2.00;;;;;10.34;86.38;100857.16;4946076;28;9821;-69
2023/12/28 10:51:43;;;;;;;;;7.25;2.25;;;;;10.32;85.73;100856.50;4952857;28;9780;-69
2023/12/28 10:54:39;;;;;;;;;7.50;1.75;;;;;10.35;84.87;100861.50;4951319;28;9805;-69
2023/12/28 10:57:11;;;;;;;;;2.75;2.00;;;;;10.33;84.15;100858.19;4930746;28;9775;-69
2023/12/28 10:59:44;;;;;;;;;2.00;2.00;;;;;10.34;84.26;100842.88;4952720;28;9796;-68
2023/12/28 11:02:17;;;;;;;;;6.50;3.25;;;;;10.33;83.76;100847.41;4933650;28;9724;-69
2023/12/28 11:04:48;;;;;;;;;6.50;3.00;;;;;10.35;83.54;100845.34;4949938;28;9775;-68
2023/12/28 11:07:17;;;;;;;;;5.00;3.00;;;;;10.38;83.17;100838.75;4951340;28;9937;-69
2023/12/28 11:09:44;;;;;;;;;5.50;2.75;;;;;10.50;82.65;100831.81;4951063;28;9795;-69
2023/12/28 11:12:12;;;;;;;;;2.75;2.75;;;;;10.47;82.09;100851.03;4948194;28;9712;-68
2023/12/28 11:14:40;;;;;;;;;5.75;2.00;;;;;10.48;82.47;100838.41;4946467;28;9738;-68
2023/12/28 11:17:08;;;;;;;;;4.50;3.00;;;;;10.57;82.02;100837.25;4935892;28;9664;-68
2023/12/28 11:19:36;;;;;;;;;5.25;4.50;;;;;10.55;82.07;100848.22;4965169;28;9698;-68
2023/12/28 11:22:03;;;;;;;;;6.25;2.75;;;;;10.57;82.04;100837.25;4954414;28;10443;-69
2023/12/28 11:24:31;;;;;;;;;3.00;1.00;;;;;10.51;82.25;100841.56;4944742;28;9557;-68
2023/12/28 11:26:58;;;;;;;;;1.25;1.25;;;;;10.47;82.11;100831.38;4950279;28;9727;-68
2023/12/28 11:29:25;;;;;;;;;6.50;2.75;;;;;10.44;82.11;100837.97;4932715;28;9484;-68
2023/12/28 11:31:52;;;;;;;;;7.25;5.00;;;;;10.44;81.91;100832.59;4948733;28;9868;-69
2023/12/28 11:34:24;;;;;;;;;2.25;2.00;;;;;10.50;81.73;100831.81;4951218;28;9884;-68
2023/12/28 11:36:54;;;;;;;;;3.25;2.50;;;;;10.63;81.64;100825.72;4952057;28;9659;-68
2023/12/28 11:39:35;;;;;;;;;6.00;5.50;;;;;10.62;81.54;100818.69;4952054;28;9706;-69